sensor_id;sensor_type;location;lat;lon;timestamp;P1;durP1;ratioP1;P2;durP2;ratioP2
9997;SDS011;5038;53.064;8.624;2023-05-10T00:00:15;17.50;;;16.00;;
9997;SDS011;5038;53.064;8.624;2023-05-10T00:02:45;19.37;;;17.77;;
9997;SDS011;5038;53.064;8.624;2023-05-10T00:05:14;18.50;;;16.90;;
9997;SDS011;5038;53.064;8.624;2023-05-10T00:07:42;18.83;;;17.23;;
9997;SDS011;5038;53.064;8.624;2023-05-10T00:10:11;19.63;;;18.03;;
9997;SDS011;5038;53.064;8.624;2023-05-10T00:12:39;19.23;;;17.53;;
9997;SDS011;5038;53.064;8.624;2023-05-10T00:15:08;18.27;;;16.67;;
9997;SDS011;5038;53.064;8.624;2023-05-10T00:17:36;20.97;;;19.17;;
9997;SDS011;5038;53.064;8.624;2023-05-10T00:20:06;17.53;;;16.03;;
9997;SDS011;5038;53.064;8.624;2023-05-10T00:22:35;18.97;;;17.33;;
9997;SDS011;5038;53.064;8.624;2023-05-10T00:25:04;17.87;;;16.33;;
9997;SDS011;5038;53.064;8.624;2023-05-10T00:27:32;20.17;;;18.37;;
9997;SDS011;5038;53.064;8.624;2023-05-10T00:30:00;19.93;;;18.23;;
9997;SDS011;5038;53.064;8.624;2023-05-10T00:32:29;19.80;;;18.20;;
9997;SDS011;5038;53.064;8.624;2023-05-10T00:34:57;19.43;;;17.60;;
9997;SDS011;5038;53.064;8.624;2023-05-10T00:37:27;19.07;;;17.37;;
9997;SDS011;5038;53.064;8.624;2023-05-10T00:39:56;20.67;;;18.87;;
9997;SDS011;5038;53.064;8.624;2023-05-10T00:42:25;20.17;;;18.47;;
9997;SDS011;5038;53.064;8.624;2023-05-10T00:44:54;18.70;;;17.10;;
9997;SDS011;5038;53.064;8.624;2023-05-10T00:47:22;21.30;;;19.40;;
9997;SDS011;5038;53.064;8.624;2023-05-10T00:49:50;21.13;;;19.33;;
9997;SDS011;5038;53.064;8.624;2023-05-10T00:52:19;21.70;;;19.70;;
9997;SDS011;5038;53.064;8.624;2023-05-10T00:54:51;21.93;;;19.97;;
9997;SDS011;5038;53.064;8.624;2023-05-10T00:57:20;21.70;;;19.80;;
9997;SDS011;5038;53.064;8.624;2023-05-10T00:59:48;21.23;;;19.33;;
9997;SDS011;5038;53.064;8.624;2023-05-10T01:02:17;20.30;;;18.60;;
9997;SDS011;5038;53.064;8.624;2023-05-10T01:04:45;20.33;;;18.70;;
9997;SDS011;5038;53.064;8.624;2023-05-10T01:07:14;17.53;;;16.10;;
9997;SDS011;5038;53.064;8.624;2023-05-10T01:09:42;18.63;;;17.00;;
9997;SDS011;5038;53.064;8.624;2023-05-10T01:12:11;17.10;;;15.70;;
9997;SDS011;5038;53.064;8.624;2023-05-10T01:14:40;16.50;;;15.10;;
9997;SDS011;5038;53.064;8.624;2023-05-10T01:17:08;16.20;;;14.80;;
9997;SDS011;5038;53.064;8.624;2023-05-10T01:19:38;14.37;;;13.07;;
9997;SDS011;5038;53.064;8.624;2023-05-10T01:22:10;13.83;;;12.53;;
9997;SDS011;5038;53.064;8.624;2023-05-10T01:25:05;14.67;;;13.43;;
9997;SDS011;5038;53.064;8.624;2023-05-10T01:28:00;15.73;;;14.17;;
9997;SDS011;5038;53.064;8.624;2023-05-10T01:30:55;15.90;;;14.60;;
9997;SDS011;5038;53.064;8.624;2023-05-10T01:33:37;14.47;;;13.07;;
9997;SDS011;5038;53.064;8.624;2023-05-10T01:36:12;14.17;;;12.97;;
9997;SDS011;5038;53.064;8.624;2023-05-10T01:38:52;15.03;;;13.77;;
9997;SDS011;5038;53.064;8.624;2023-05-10T01:41:28;13.70;;;12.53;;
9997;SDS011;5038;53.064;8.624;2023-05-10T01:44:11;15.10;;;13.80;;
9997;SDS011;5038;53.064;8.624;2023-05-10T01:46:46;14.17;;;12.97;;
9997;SDS011;5038;53.064;8.624;2023-05-10T01:49:20;13.63;;;12.50;;
9997;SDS011;5038;53.064;8.624;2023-05-10T01:51:51;12.27;;;11.27;;
9997;SDS011;5038;53.064;8.624;2023-05-10T01:54:22;12.50;;;11.50;;
9997;SDS011;5038;53.064;8.624;2023-05-10T01:56:52;11.87;;;10.77;;
9997;SDS011;5038;53.064;8.624;2023-05-10T01:59:25;12.50;;;11.50;;
9997;SDS011;5038;53.064;8.624;2023-05-10T02:01:58;12.00;;;10.80;;
9997;SDS011;5038;53.064;8.624;2023-05-10T02:04:29;12.30;;;11.10;;
9997;SDS011;5038;53.064;8.624;2023-05-10T02:06:59;11.60;;;10.50;;
9997;SDS011;5038;53.064;8.624;2023-05-10T02:09:27;10.90;;;9.90;;
9997;SDS011;5038;53.064;8.624;2023-05-10T02:11:59;10.07;;;9.20;;
9997;SDS011;5038;53.064;8.624;2023-05-10T02:14:32;10.03;;;8.57;;
9997;SDS011;5038;53.064;8.624;2023-05-10T02:17:04;10.00;;;9.10;;
9997;SDS011;5038;53.064;8.624;2023-05-10T02:19:35;10.80;;;9.80;;
9997;SDS011;5038;53.064;8.624;2023-05-10T02:22:05;11.47;;;10.40;;
9997;SDS011;5038;53.064;8.624;2023-05-10T02:24:35;10.03;;;9.13;;
9997;SDS011;5038;53.064;8.624;2023-05-10T02:27:05;11.83;;;9.60;;
9997;SDS011;5038;53.064;8.624;2023-05-10T02:29:34;9.70;;;8.90;;
9997;SDS011;5038;53.064;8.624;2023-05-10T02:32:04;11.23;;;8.93;;
9997;SDS011;5038;53.064;8.624;2023-05-10T02:34:34;10.77;;;9.60;;
9997;SDS011;5038;53.064;8.624;2023-05-10T02:37:03;9.60;;;8.70;;
9997;SDS011;5038;53.064;8.624;2023-05-10T02:39:32;11.33;;;9.67;;
9997;SDS011;5038;53.064;8.624;2023-05-10T02:42:02;9.20;;;8.23;;
9997;SDS011;5038;53.064;8.624;2023-05-10T02:44:31;9.60;;;8.70;;
9997;SDS011;5038;53.064;8.624;2023-05-10T02:47:01;10.60;;;9.60;;
9997;SDS011;5038;53.064;8.624;2023-05-10T02:49:29;12.73;;;9.60;;
9997;SDS011;5038;53.064;8.624;2023-05-10T02:51:59;10.13;;;9.13;;
9997;SDS011;5038;53.064;8.624;2023-05-10T02:54:34;9.57;;;8.70;;
9997;SDS011;5038;53.064;8.624;2023-05-10T02:57:07;10.60;;;9.50;;
9997;SDS011;5038;53.064;8.624;2023-05-10T02:59:38;10.50;;;9.60;;
9997;SDS011;5038;53.064;8.624;2023-05-10T03:02:06;10.50;;;9.47;;
9997;SDS011;5038;53.064;8.624;2023-05-10T03:04:34;10.37;;;9.37;;
9997;SDS011;5038;53.064;8.624;2023-05-10T03:07:04;10.73;;;9.73;;
9997;SDS011;5038;53.064;8.624;2023-05-10T03:09:32;12.93;;;11.60;;
9997;SDS011;5038;53.064;8.624;2023-05-10T03:12:03;10.57;;;9.60;;
9997;SDS011;5038;53.064;8.624;2023-05-10T03:14:40;12.53;;;11.43;;
9997;SDS011;5038;53.064;8.624;2023-05-10T03:17:15;10.73;;;9.73;;
9997;SDS011;5038;53.064;8.624;2023-05-10T03:19:51;11.30;;;10.17;;
9997;SDS011;5038;53.064;8.624;2023-05-10T03:22:25;10.90;;;10.00;;
9997;SDS011;5038;53.064;8.624;2023-05-10T03:24:58;10.67;;;9.77;;
9997;SDS011;5038;53.064;8.624;2023-05-10T03:27:30;10.83;;;9.83;;
9997;SDS011;5038;53.064;8.624;2023-05-10T03:29:59;11.37;;;10.07;;
9997;SDS011;5038;53.064;8.624;2023-05-10T03:32:32;11.40;;;10.30;;
9997;SDS011;5038;53.064;8.624;2023-05-10T03:35:01;12.20;;;10.90;;
9997;SDS011;5038;53.064;8.624;2023-05-10T03:37:36;9.80;;;8.80;;
9997;SDS011;5038;53.064;8.624;2023-05-10T03:40:05;10.37;;;9.37;;
9997;SDS011;5038;53.064;8.624;2023-05-10T03:42:36;10.03;;;9.13;;
9997;SDS011;5038;53.064;8.624;2023-05-10T03:45:05;10.40;;;9.40;;
9997;SDS011;5038;53.064;8.624;2023-05-10T03:47:34;10.97;;;9.87;;
9997;SDS011;5038;53.064;8.624;2023-05-10T03:50:02;11.50;;;10.40;;
9997;SDS011;5038;53.064;8.624;2023-05-10T03:52:32;11.13;;;10.03;;
9997;SDS011;5038;53.064;8.624;2023-05-10T03:55:01;11.10;;;10.10;;
9997;SDS011;5038;53.064;8.624;2023-05-10T03:57:30;11.90;;;10.90;;
9997;SDS011;5038;53.064;8.624;2023-05-10T03:59:58;10.70;;;9.63;;
9997;SDS011;5038;53.064;8.624;2023-05-10T04:02:27;11.40;;;10.40;;
9997;SDS011;5038;53.064;8.624;2023-05-10T04:04:56;11.47;;;10.33;;
9997;SDS011;5038;53.064;8.624;2023-05-10T04:07:24;12.17;;;11.10;;
9997;SDS011;5038;53.064;8.624;2023-05-10T04:09:52;10.90;;;9.90;;
9997;SDS011;5038;53.064;8.624;2023-05-10T04:12:23;10.50;;;9.60;;
9997;SDS011;5038;53.064;8.624;2023-05-10T04:14:51;15.93;;;14.43;;
9997;SDS011;5038;53.064;8.624;2023-05-10T04:17:19;13.63;;;12.33;;
9997;SDS011;5038;53.064;8.624;2023-05-10T04:19:47;12.43;;;11.23;;
9997;SDS011;5038;53.064;8.624;2023-05-10T04:22:15;16.07;;;14.50;;
9997;SDS011;5038;53.064;8.624;2023-05-10T04:24:43;13.10;;;12.00;;
9997;SDS011;5038;53.064;8.624;2023-05-10T04:27:11;11.50;;;10.50;;
9997;SDS011;5038;53.064;8.624;2023-05-10T04:29:41;11.07;;;10.07;;
9997;SDS011;5038;53.064;8.624;2023-05-10T04:32:09;12.40;;;11.10;;
9997;SDS011;5038;53.064;8.624;2023-05-10T04:34:37;12.60;;;10.30;;
9997;SDS011;5038;53.064;8.624;2023-05-10T04:37:05;12.00;;;10.80;;
9997;SDS011;5038;53.064;8.624;2023-05-10T04:39:34;12.17;;;11.07;;
9997;SDS011;5038;53.064;8.624;2023-05-10T04:42:02;12.30;;;11.17;;
9997;SDS011;5038;53.064;8.624;2023-05-10T04:44:32;19.30;;;17.40;;
9997;SDS011;5038;53.064;8.624;2023-05-10T04:47:01;15.00;;;13.60;;
9997;SDS011;5038;53.064;8.624;2023-05-10T04:49:29;13.20;;;12.00;;
9997;SDS011;5038;53.064;8.624;2023-05-10T04:51:57;13.23;;;11.97;;
9997;SDS011;5038;53.064;8.624;2023-05-10T04:54:25;12.30;;;11.23;;
9997;SDS011;5038;53.064;8.624;2023-05-10T04:56:53;13.10;;;11.90;;
9997;SDS011;5038;53.064;8.624;2023-05-10T04:59:21;13.77;;;12.57;;
9997;SDS011;5038;53.064;8.624;2023-05-10T05:01:49;16.07;;;14.77;;
9997;SDS011;5038;53.064;8.624;2023-05-10T05:04:19;16.30;;;14.90;;
9997;SDS011;5038;53.064;8.624;2023-05-10T05:06:49;13.77;;;12.57;;
9997;SDS011;5038;53.064;8.624;2023-05-10T05:09:19;15.20;;;13.87;;
9997;SDS011;5038;53.064;8.624;2023-05-10T05:11:47;13.90;;;12.70;;
9997;SDS011;5038;53.064;8.624;2023-05-10T05:14:15;14.70;;;13.40;;
9997;SDS011;5038;53.064;8.624;2023-05-10T05:16:43;14.80;;;13.50;;
9997;SDS011;5038;53.064;8.624;2023-05-10T05:19:11;14.60;;;13.47;;
9997;SDS011;5038;53.064;8.624;2023-05-10T05:21:41;14.30;;;13.17;;
9997;SDS011;5038;53.064;8.624;2023-05-10T05:24:09;15.27;;;13.93;;
9997;SDS011;5038;53.064;8.624;2023-05-10T05:26:38;15.17;;;13.87;;
9997;SDS011;5038;53.064;8.624;2023-05-10T05:29:07;18.70;;;17.20;;
9997;SDS011;5038;53.064;8.624;2023-05-10T05:31:35;15.47;;;14.07;;
9997;SDS011;5038;53.064;8.624;2023-05-10T05:34:03;15.73;;;14.33;;
9997;SDS011;5038;53.064;8.624;2023-05-10T05:36:31;15.80;;;14.50;;
9997;SDS011;5038;53.064;8.624;2023-05-10T05:39:03;15.63;;;14.30;;
9997;SDS011;5038;53.064;8.624;2023-05-10T05:41:31;16.00;;;14.70;;
9997;SDS011;5038;53.064;8.624;2023-05-10T05:43:59;18.50;;;16.03;;
9997;SDS011;5038;53.064;8.624;2023-05-10T05:46:27;15.50;;;14.23;;
9997;SDS011;5038;53.064;8.624;2023-05-10T05:48:56;16.37;;;14.97;;
9997;SDS011;5038;53.064;8.624;2023-05-10T05:51:24;17.00;;;15.60;;
9997;SDS011;5038;53.064;8.624;2023-05-10T05:53:52;16.50;;;15.13;;
9997;SDS011;5038;53.064;8.624;2023-05-10T05:56:21;16.10;;;14.77;;
9997;SDS011;5038;53.064;8.624;2023-05-10T05:58:51;16.50;;;15.10;;
9997;SDS011;5038;53.064;8.624;2023-05-10T06:01:19;17.17;;;15.70;;
9997;SDS011;5038;53.064;8.624;2023-05-10T06:03:47;17.27;;;15.77;;
9997;SDS011;5038;53.064;8.624;2023-05-10T06:06:18;16.77;;;15.17;;
9997;SDS011;5038;53.064;8.624;2023-05-10T06:08:46;17.27;;;15.87;;
9997;SDS011;5038;53.064;8.624;2023-05-10T06:11:14;16.83;;;15.33;;
9997;SDS011;5038;53.064;8.624;2023-05-10T06:13:44;17.30;;;15.77;;
9997;SDS011;5038;53.064;8.624;2023-05-10T06:16:12;16.10;;;14.80;;
9997;SDS011;5038;53.064;8.624;2023-05-10T06:18:40;14.53;;;13.23;;
9997;SDS011;5038;53.064;8.624;2023-05-10T06:21:08;14.07;;;12.97;;
9997;SDS011;5038;53.064;8.624;2023-05-10T06:23:36;12.57;;;11.37;;
9997;SDS011;5038;53.064;8.624;2023-05-10T06:26:04;9.37;;;8.47;;
9997;SDS011;5038;53.064;8.624;2023-05-10T06:28:32;9.30;;;8.50;;
9997;SDS011;5038;53.064;8.624;2023-05-10T06:31:02;8.60;;;7.80;;
9997;SDS011;5038;53.064;8.624;2023-05-10T06:33:30;8.00;;;7.20;;
9997;SDS011;5038;53.064;8.624;2023-05-10T06:35:58;6.07;;;5.43;;
9997;SDS011;5038;53.064;8.624;2023-05-10T06:38:26;6.60;;;5.90;;
9997;SDS011;5038;53.064;8.624;2023-05-10T06:40:54;7.30;;;6.40;;
9997;SDS011;5038;53.064;8.624;2023-05-10T06:43:23;6.33;;;5.47;;
9997;SDS011;5038;53.064;8.624;2023-05-10T06:45:52;5.97;;;5.20;;
9997;SDS011;5038;53.064;8.624;2023-05-10T06:48:21;5.73;;;4.93;;
9997;SDS011;5038;53.064;8.624;2023-05-10T06:50:49;7.93;;;6.07;;
9997;SDS011;5038;53.064;8.624;2023-05-10T06:53:18;7.33;;;4.97;;
9997;SDS011;5038;53.064;8.624;2023-05-10T06:55:46;6.53;;;5.87;;
9997;SDS011;5038;53.064;8.624;2023-05-10T06:58:14;6.23;;;5.40;;
9997;SDS011;5038;53.064;8.624;2023-05-10T07:00:42;6.23;;;5.63;;
9997;SDS011;5038;53.064;8.624;2023-05-10T07:03:11;6.67;;;5.50;;
9997;SDS011;5038;53.064;8.624;2023-05-10T07:05:41;7.40;;;6.60;;
9997;SDS011;5038;53.064;8.624;2023-05-10T07:08:09;7.30;;;6.50;;
9997;SDS011;5038;53.064;8.624;2023-05-10T07:10:37;7.83;;;7.03;;
9997;SDS011;5038;53.064;8.624;2023-05-10T07:13:05;7.80;;;7.00;;
9997;SDS011;5038;53.064;8.624;2023-05-10T07:15:33;8.00;;;7.07;;
9997;SDS011;5038;53.064;8.624;2023-05-10T07:18:01;7.20;;;6.50;;
9997;SDS011;5038;53.064;8.624;2023-05-10T07:20:30;7.63;;;6.90;;
9997;SDS011;5038;53.064;8.624;2023-05-10T07:23:00;7.93;;;7.13;;
9997;SDS011;5038;53.064;8.624;2023-05-10T07:25:28;7.87;;;7.07;;
9997;SDS011;5038;53.064;8.624;2023-05-10T07:27:56;8.60;;;7.80;;
9997;SDS011;5038;53.064;8.624;2023-05-10T07:30:24;8.53;;;7.63;;
9997;SDS011;5038;53.064;8.624;2023-05-10T07:32:52;9.37;;;7.97;;
9997;SDS011;5038;53.064;8.624;2023-05-10T07:35:20;8.13;;;7.33;;
9997;SDS011;5038;53.064;8.624;2023-05-10T07:37:48;9.20;;;8.30;;
9997;SDS011;5038;53.064;8.624;2023-05-10T07:40:18;8.20;;;7.37;;
9997;SDS011;5038;53.064;8.624;2023-05-10T07:42:46;7.63;;;6.93;;
9997;SDS011;5038;53.064;8.624;2023-05-10T07:45:14;9.07;;;7.93;;
9997;SDS011;5038;53.064;8.624;2023-05-10T07:47:43;9.40;;;8.40;;
9997;SDS011;5038;53.064;8.624;2023-05-10T07:50:11;7.80;;;7.00;;
9997;SDS011;5038;53.064;8.624;2023-05-10T07:52:39;8.10;;;7.30;;
9997;SDS011;5038;53.064;8.624;2023-05-10T07:55:07;7.73;;;7.00;;
9997;SDS011;5038;53.064;8.624;2023-05-10T07:57:38;7.40;;;6.70;;
9997;SDS011;5038;53.064;8.624;2023-05-10T08:00:06;8.43;;;7.63;;
9997;SDS011;5038;53.064;8.624;2023-05-10T08:02:41;7.90;;;6.87;;
9997;SDS011;5038;53.064;8.624;2023-05-10T08:05:09;8.47;;;7.57;;
9997;SDS011;5038;53.064;8.624;2023-05-10T08:07:37;8.10;;;7.30;;
9997;SDS011;5038;53.064;8.624;2023-05-10T08:10:06;8.37;;;7.57;;
9997;SDS011;5038;53.064;8.624;2023-05-10T08:12:35;8.07;;;7.30;;
9997;SDS011;5038;53.064;8.624;2023-05-10T08:15:05;8.30;;;7.50;;
9997;SDS011;5038;53.064;8.624;2023-05-10T08:17:34;8.73;;;7.40;;
9997;SDS011;5038;53.064;8.624;2023-05-10T08:20:02;8.53;;;7.70;;
9997;SDS011;5038;53.064;8.624;2023-05-10T08:22:30;8.97;;;8.07;;
9997;SDS011;5038;53.064;8.624;2023-05-10T08:24:59;9.83;;;8.83;;
9997;SDS011;5038;53.064;8.624;2023-05-10T08:27:27;10.00;;;9.10;;
9997;SDS011;5038;53.064;8.624;2023-05-10T08:29:56;8.33;;;7.53;;
9997;SDS011;5038;53.064;8.624;2023-05-10T08:32:24;9.23;;;8.27;;
9997;SDS011;5038;53.064;8.624;2023-05-10T08:34:52;9.00;;;8.20;;
9997;SDS011;5038;53.064;8.624;2023-05-10T08:37:20;6.80;;;6.07;;
9997;SDS011;5038;53.064;8.624;2023-05-10T08:39:48;5.30;;;4.50;;
9997;SDS011;5038;53.064;8.624;2023-05-10T08:42:16;7.47;;;4.20;;
9997;SDS011;5038;53.064;8.624;2023-05-10T08:44:49;5.00;;;4.10;;
9997;SDS011;5038;53.064;8.624;2023-05-10T08:47:20;5.87;;;4.20;;
9997;SDS011;5038;53.064;8.624;2023-05-10T08:49:49;4.80;;;4.30;;
9997;SDS011;5038;53.064;8.624;2023-05-10T08:52:18;5.57;;;4.80;;
9997;SDS011;5038;53.064;8.624;2023-05-10T08:54:46;5.60;;;4.30;;
9997;SDS011;5038;53.064;8.624;2023-05-10T08:57:14;5.23;;;4.60;;
9997;SDS011;5038;53.064;8.624;2023-05-10T08:59:42;6.10;;;5.03;;
9997;SDS011;5038;53.064;8.624;2023-05-10T09:02:11;5.53;;;4.30;;
9997;SDS011;5038;53.064;8.624;2023-05-10T09:04:44;6.00;;;4.77;;
9997;SDS011;5038;53.064;8.624;2023-05-10T09:07:13;6.10;;;5.30;;
9997;SDS011;5038;53.064;8.624;2023-05-10T09:09:42;6.90;;;6.20;;
9997;SDS011;5038;53.064;8.624;2023-05-10T09:12:10;7.10;;;5.60;;
9997;SDS011;5038;53.064;8.624;2023-05-10T09:14:42;6.47;;;5.87;;
9997;SDS011;5038;53.064;8.624;2023-05-10T09:17:11;7.40;;;6.70;;
9997;SDS011;5038;53.064;8.624;2023-05-10T09:19:40;8.27;;;7.47;;
9997;SDS011;5038;53.064;8.624;2023-05-10T09:22:09;9.20;;;8.30;;
9997;SDS011;5038;53.064;8.624;2023-05-10T09:24:38;9.37;;;8.43;;
9997;SDS011;5038;53.064;8.624;2023-05-10T09:27:11;9.40;;;8.50;;
9997;SDS011;5038;53.064;8.624;2023-05-10T09:29:39;10.13;;;9.13;;
9997;SDS011;5038;53.064;8.624;2023-05-10T09:32:08;9.00;;;8.20;;
9997;SDS011;5038;53.064;8.624;2023-05-10T09:34:36;9.83;;;8.93;;
9997;SDS011;5038;53.064;8.624;2023-05-10T09:37:06;10.27;;;9.27;;
9997;SDS011;5038;53.064;8.624;2023-05-10T09:39:36;10.10;;;9.20;;
9997;SDS011;5038;53.064;8.624;2023-05-10T09:42:05;10.30;;;9.30;;
9997;SDS011;5038;53.064;8.624;2023-05-10T09:44:35;8.93;;;8.13;;
9997;SDS011;5038;53.064;8.624;2023-05-10T09:47:04;10.77;;;9.77;;
9997;SDS011;5038;53.064;8.624;2023-05-10T09:49:32;8.40;;;7.60;;
9997;SDS011;5038;53.064;8.624;2023-05-10T09:52:01;10.23;;;9.33;;
9997;SDS011;5038;53.064;8.624;2023-05-10T09:54:31;11.03;;;10.07;;
9997;SDS011;5038;53.064;8.624;2023-05-10T09:57:00;10.83;;;9.77;;
9997;SDS011;5038;53.064;8.624;2023-05-10T09:59:29;9.83;;;8.90;;
9997;SDS011;5038;53.064;8.624;2023-05-10T10:01:58;7.23;;;6.53;;
9997;SDS011;5038;53.064;8.624;2023-05-10T10:04:27;7.87;;;7.17;;
9997;SDS011;5038;53.064;8.624;2023-05-10T10:06:59;6.53;;;5.70;;
9997;SDS011;5038;53.064;8.624;2023-05-10T10:09:29;7.57;;;5.30;;
9997;SDS011;5038;53.064;8.624;2023-05-10T10:11:58;5.63;;;5.10;;
9997;SDS011;5038;53.064;8.624;2023-05-10T10:14:28;6.07;;;5.13;;
9997;SDS011;5038;53.064;8.624;2023-05-10T10:16:57;6.30;;;4.63;;
9997;SDS011;5038;53.064;8.624;2023-05-10T10:19:30;5.90;;;4.70;;
9997;SDS011;5038;53.064;8.624;2023-05-10T10:22:01;6.23;;;5.37;;
9997;SDS011;5038;53.064;8.624;2023-05-10T10:24:29;7.87;;;5.50;;
9997;SDS011;5038;53.064;8.624;2023-05-10T10:26:59;6.50;;;5.60;;
9997;SDS011;5038;53.064;8.624;2023-05-10T10:29:36;6.07;;;5.43;;
9997;SDS011;5038;53.064;8.624;2023-05-10T10:32:17;6.50;;;5.70;;
9997;SDS011;5038;53.064;8.624;2023-05-10T10:34:53;6.03;;;5.43;;
9997;SDS011;5038;53.064;8.624;2023-05-10T10:37:23;5.80;;;5.20;;
9997;SDS011;5038;53.064;8.624;2023-05-10T10:40:22;6.10;;;5.30;;
9997;SDS011;5038;53.064;8.624;2023-05-10T10:42:53;6.63;;;6.00;;
9997;SDS011;5038;53.064;8.624;2023-05-10T10:45:22;8.77;;;7.87;;
9997;SDS011;5038;53.064;8.624;2023-05-10T10:50:55;7.90;;;7.10;;
9997;SDS011;5038;53.064;8.624;2023-05-10T10:53:25;8.53;;;7.80;;
9997;SDS011;5038;53.064;8.624;2023-05-10T10:56:02;8.10;;;7.47;;
9997;SDS011;5038;53.064;8.624;2023-05-10T10:58:37;8.07;;;7.37;;
9997;SDS011;5038;53.064;8.624;2023-05-10T11:01:10;8.17;;;7.37;;
9997;SDS011;5038;53.064;8.624;2023-05-10T11:03:39;7.53;;;6.93;;
9997;SDS011;5038;53.064;8.624;2023-05-10T11:06:08;7.77;;;7.17;;
9997;SDS011;5038;53.064;8.624;2023-05-10T11:08:41;8.33;;;7.53;;
9997;SDS011;5038;53.064;8.624;2023-05-10T11:11:14;7.30;;;6.70;;
9997;SDS011;5038;53.064;8.624;2023-05-10T11:13:44;7.50;;;6.80;;
9997;SDS011;5038;53.064;8.624;2023-05-10T11:16:17;7.00;;;6.37;;
9997;SDS011;5038;53.064;8.624;2023-05-10T11:18:59;5.83;;;5.33;;
9997;SDS011;5038;53.064;8.624;2023-05-10T11:21:30;5.53;;;5.13;;
9997;SDS011;5038;53.064;8.624;2023-05-10T11:23:59;5.80;;;5.30;;
9997;SDS011;5038;53.064;8.624;2023-05-10T11:26:33;4.70;;;4.30;;
9997;SDS011;5038;53.064;8.624;2023-05-10T11:29:03;3.17;;;2.30;;
9997;SDS011;5038;53.064;8.624;2023-05-10T11:31:32;3.10;;;1.70;;
9997;SDS011;5038;53.064;8.624;2023-05-10T11:34:00;3.10;;;1.60;;
9997;SDS011;5038;53.064;8.624;2023-05-10T11:36:29;2.80;;;1.33;;
9997;SDS011;5038;53.064;8.624;2023-05-10T11:39:00;2.50;;;1.07;;
9997;SDS011;5038;53.064;8.624;2023-05-10T11:41:29;2.40;;;0.90;;
9997;SDS011;5038;53.064;8.624;2023-05-10T11:43:58;2.40;;;1.00;;
9997;SDS011;5038;53.064;8.624;2023-05-10T11:46:27;3.37;;;1.10;;
9997;SDS011;5038;53.064;8.624;2023-05-10T11:48:58;3.10;;;1.40;;
9997;SDS011;5038;53.064;8.624;2023-05-10T11:51:32;2.77;;;1.40;;
9997;SDS011;5038;53.064;8.624;2023-05-10T11:54:01;2.60;;;1.10;;
9997;SDS011;5038;53.064;8.624;2023-05-10T11:56:33;2.43;;;1.07;;
9997;SDS011;5038;53.064;8.624;2023-05-10T11:59:01;2.80;;;1.43;;
9997;SDS011;5038;53.064;8.624;2023-05-10T12:01:30;3.47;;;1.30;;
9997;SDS011;5038;53.064;8.624;2023-05-10T12:03:59;3.00;;;0.83;;
9997;SDS011;5038;53.064;8.624;2023-05-10T12:06:28;2.63;;;0.93;;
9997;SDS011;5038;53.064;8.624;2023-05-10T12:08:58;2.77;;;1.17;;
9997;SDS011;5038;53.064;8.624;2023-05-10T12:11:27;2.57;;;1.23;;
9997;SDS011;5038;53.064;8.624;2023-05-10T12:13:56;2.53;;;1.07;;
9997;SDS011;5038;53.064;8.624;2023-05-10T12:16:24;2.40;;;1.10;;
9997;SDS011;5038;53.064;8.624;2023-05-10T12:18:58;2.90;;;0.90;;
9997;SDS011;5038;53.064;8.624;2023-05-10T12:21:28;2.60;;;1.13;;
9997;SDS011;5038;53.064;8.624;2023-05-10T12:23:59;2.50;;;1.20;;
9997;SDS011;5038;53.064;8.624;2023-05-10T12:26:29;3.20;;;2.00;;
9997;SDS011;5038;53.064;8.624;2023-05-10T12:29:11;3.67;;;2.13;;
9997;SDS011;5038;53.064;8.624;2023-05-10T12:31:52;3.67;;;2.53;;
9997;SDS011;5038;53.064;8.624;2023-05-10T12:34:26;4.30;;;3.40;;
9997;SDS011;5038;53.064;8.624;2023-05-10T12:36:58;4.43;;;3.90;;
9997;SDS011;5038;53.064;8.624;2023-05-10T12:39:37;5.00;;;4.13;;
9997;SDS011;5038;53.064;8.624;2023-05-10T12:42:06;5.23;;;4.30;;
9997;SDS011;5038;53.064;8.624;2023-05-10T12:44:34;5.03;;;4.53;;
9997;SDS011;5038;53.064;8.624;2023-05-10T12:47:02;5.00;;;4.50;;
9997;SDS011;5038;53.064;8.624;2023-05-10T12:49:32;6.07;;;5.00;;
9997;SDS011;5038;53.064;8.624;2023-05-10T12:52:01;6.43;;;5.73;;
9997;SDS011;5038;53.064;8.624;2023-05-10T12:54:29;6.00;;;5.20;;
9997;SDS011;5038;53.064;8.624;2023-05-10T12:56:58;6.53;;;4.60;;
9997;SDS011;5038;53.064;8.624;2023-05-10T12:59:26;5.33;;;4.73;;
9997;SDS011;5038;53.064;8.624;2023-05-10T13:01:55;6.03;;;5.43;;
9997;SDS011;5038;53.064;8.624;2023-05-10T13:04:24;5.57;;;5.07;;
9997;SDS011;5038;53.064;8.624;2023-05-10T13:06:53;5.40;;;4.90;;
9997;SDS011;5038;53.064;8.624;2023-05-10T13:09:24;5.53;;;4.93;;
9997;SDS011;5038;53.064;8.624;2023-05-10T13:11:52;6.67;;;4.60;;
9997;SDS011;5038;53.064;8.624;2023-05-10T13:14:20;4.47;;;4.07;;
9997;SDS011;5038;53.064;8.624;2023-05-10T13:16:49;4.33;;;3.80;;
9997;SDS011;5038;53.064;8.624;2023-05-10T13:19:17;4.00;;;3.60;;
9997;SDS011;5038;53.064;8.624;2023-05-10T13:21:46;5.93;;;4.10;;
9997;SDS011;5038;53.064;8.624;2023-05-10T13:24:15;5.13;;;4.63;;
9997;SDS011;5038;53.064;8.624;2023-05-10T13:26:43;5.03;;;4.53;;
9997;SDS011;5038;53.064;8.624;2023-05-10T13:29:12;5.43;;;4.60;;
9997;SDS011;5038;53.064;8.624;2023-05-10T13:31:40;4.90;;;4.30;;
9997;SDS011;5038;53.064;8.624;2023-05-10T13:34:08;5.30;;;4.80;;
9997;SDS011;5038;53.064;8.624;2023-05-10T13:36:36;5.60;;;4.63;;
9997;SDS011;5038;53.064;8.624;2023-05-10T13:39:04;6.00;;;5.47;;
9997;SDS011;5038;53.064;8.624;2023-05-10T13:41:34;5.60;;;4.90;;
9997;SDS011;5038;53.064;8.624;2023-05-10T13:44:03;5.60;;;5.10;;
9997;SDS011;5038;53.064;8.624;2023-05-10T13:46:31;5.10;;;4.60;;
9997;SDS011;5038;53.064;8.624;2023-05-10T13:48:59;5.47;;;4.87;;
9997;SDS011;5038;53.064;8.624;2023-05-10T13:51:27;5.10;;;4.37;;
9997;SDS011;5038;53.064;8.624;2023-05-10T13:53:55;5.47;;;4.97;;
9997;SDS011;5038;53.064;8.624;2023-05-10T13:56:23;5.53;;;5.03;;
9997;SDS011;5038;53.064;8.624;2023-05-10T13:58:53;5.47;;;4.40;;
9997;SDS011;5038;53.064;8.624;2023-05-10T14:01:21;4.57;;;4.10;;
9997;SDS011;5038;53.064;8.624;2023-05-10T14:03:49;6.03;;;4.80;;
9997;SDS011;5038;53.064;8.624;2023-05-10T14:06:18;4.80;;;4.33;;
9997;SDS011;5038;53.064;8.624;2023-05-10T14:08:46;4.70;;;4.20;;
9997;SDS011;5038;53.064;8.624;2023-05-10T14:11:14;4.03;;;3.63;;
9997;SDS011;5038;53.064;8.624;2023-05-10T14:13:42;3.73;;;3.33;;
9997;SDS011;5038;53.064;8.624;2023-05-10T14:16:12;4.10;;;3.60;;
9997;SDS011;5038;53.064;8.624;2023-05-10T14:18:41;4.10;;;3.50;;
9997;SDS011;5038;53.064;8.624;2023-05-10T14:21:09;4.30;;;3.67;;
9997;SDS011;5038;53.064;8.624;2023-05-10T14:23:37;4.00;;;3.60;;
9997;SDS011;5038;53.064;8.624;2023-05-10T14:26:05;4.10;;;3.43;;
9997;SDS011;5038;53.064;8.624;2023-05-10T14:28:34;3.40;;;3.10;;
9997;SDS011;5038;53.064;8.624;2023-05-10T14:31:02;3.40;;;2.60;;
9997;SDS011;5038;53.064;8.624;2023-05-10T14:33:33;4.80;;;2.30;;
9997;SDS011;5038;53.064;8.624;2023-05-10T14:36:01;3.40;;;2.80;;
9997;SDS011;5038;53.064;8.624;2023-05-10T14:38:30;3.70;;;2.90;;
9997;SDS011;5038;53.064;8.624;2023-05-10T14:40:58;4.33;;;3.60;;
9997;SDS011;5038;53.064;8.624;2023-05-10T14:43:26;4.10;;;3.60;;
9997;SDS011;5038;53.064;8.624;2023-05-10T14:45:54;3.50;;;3.17;;
9997;SDS011;5038;53.064;8.624;2023-05-10T14:48:22;4.23;;;3.80;;
9997;SDS011;5038;53.064;8.624;2023-05-10T14:50:51;3.80;;;3.27;;
9997;SDS011;5038;53.064;8.624;2023-05-10T14:53:19;4.20;;;3.20;;
9997;SDS011;5038;53.064;8.624;2023-05-10T14:55:48;3.60;;;2.80;;
9997;SDS011;5038;53.064;8.624;2023-05-10T14:58:16;3.90;;;2.80;;
9997;SDS011;5038;53.064;8.624;2023-05-10T15:00:44;4.07;;;2.90;;
9997;SDS011;5038;53.064;8.624;2023-05-10T15:03:13;4.27;;;2.90;;
9997;SDS011;5038;53.064;8.624;2023-05-10T15:05:42;4.00;;;2.60;;
9997;SDS011;5038;53.064;8.624;2023-05-10T15:08:11;4.37;;;3.13;;
9997;SDS011;5038;53.064;8.624;2023-05-10T15:10:39;4.00;;;3.20;;
9997;SDS011;5038;53.064;8.624;2023-05-10T15:13:07;4.80;;;3.60;;
9997;SDS011;5038;53.064;8.624;2023-05-10T15:15:35;4.30;;;3.63;;
9997;SDS011;5038;53.064;8.624;2023-05-10T15:18:04;5.10;;;4.60;;
9997;SDS011;5038;53.064;8.624;2023-05-10T15:20:32;4.40;;;4.00;;
9997;SDS011;5038;53.064;8.624;2023-05-10T15:23:01;6.17;;;5.57;;